Time;durP1;ratioP1;P1;durP2;ratioP2;P2;SDS_P1;SDS_P2;PMS_P1;PMS_P2;Temp;Humidity;BMP_temperature;BMP_pressure;BME280_temperature;BME280_humidity;BME280_pressure;Samples;Min_cycle;Max_cycle;Signal;HPM_P1;HPM_P2
2023/01/23 00:02:14;;;;;;;13.90;9.00;;;;;;;;;;4994783;28;20812;-67
2023/01/23 00:04:39;;;;;;;16.87;9.60;;;;;;;;;;5010444;28;20223;-68
2023/01/23 00:07:04;;;;;;;14.67;9.43;;;;;;;;;;5008397;28;20635;-67
2023/01/23 00:09:30;;;;;;;14.07;8.93;;;;;;;;;;5009665;28;20208;-68
2023/01/23 00:11:56;;;;;;;13.67;9.23;;;;;;;;;;4992528;28;20221;-68
2023/01/23 00:14:21;;;;;;;14.53;8.77;;;;;;;;;;5019032;28;20219;-67
2023/01/23 00:16:46;;;;;;;15.40;9.20;;;;;;;;;;5029158;28;20298;-68
2023/01/23 00:19:11;;;;;;;12.77;8.73;;;;;;;;;;5029461;28;20366;-68
2023/01/23 00:21:38;;;;;;;13.90;9.70;;;;;;;;;;5030001;28;20227;-68
2023/01/23 00:24:04;;;;;;;12.27;9.37;;;;;;;;;;5028705;28;20223;-68
2023/01/23 00:26:31;;;;;;;12.37;8.90;;;;;;;;;;5029665;28;20205;-68
2023/01/23 00:28:57;;;;;;;11.90;9.50;;;;;;;;;;5028775;28;20216;-68
2023/01/23 00:31:24;;;;;;;13.30;9.53;;;;;;;;;;5028527;28;20581;-67
2023/01/23 00:33:52;;;;;;;14.17;9.47;;;;;;;;;;5029808;28;20216;-68
2023/01/23 00:36:18;;;;;;;14.53;9.90;;;;;;;;;;5028091;28;20207;-68
2023/01/23 00:38:44;;;;;;;15.77;10.10;;;;;;;;;;5029248;28;20902;-68
2023/01/23 00:41:09;;;;;;;17.47;10.53;;;;;;;;;;5022149;28;20228;-67
2023/01/23 00:43:34;;;;;;;16.70;10.87;;;;;;;;;;5009999;28;20215;-68
2023/01/23 00:46:00;;;;;;;12.57;9.60;;;;;;;;;;5009281;28;20622;-67
2023/01/23 00:48:25;;;;;;;15.50;10.70;;;;;;;;;;5008640;28;20213;-67
2023/01/23 00:50:50;;;;;;;16.70;11.17;;;;;;;;;;5018853;28;20585;-68
2023/01/23 00:53:16;;;;;;;17.23;11.07;;;;;;;;;;5027145;28;20258;-68
2023/01/23 00:55:41;;;;;;;15.73;11.43;;;;;;;;;;5029220;28;20220;-68
2023/01/23 00:58:07;;;;;;;14.27;10.47;;;;;;;;;;5028414;28;20215;-67
2023/01/23 01:00:32;;;;;;;15.63;10.57;;;;;;;;;;5028362;28;20212;-67
2023/01/23 01:02:58;;;;;;;17.47;11.20;;;;;;;;;;5015225;28;20205;-68
2023/01/23 01:05:23;;;;;;;15.07;10.63;;;;;;;;;;5008558;28;20243;-68
2023/01/23 01:07:48;;;;;;;17.30;11.80;;;;;;;;;;5011833;28;20267;-68
2023/01/23 01:10:14;;;;;;;15.60;10.03;;;;;;;;;;5012831;28;20572;-67
2023/01/23 01:12:39;;;;;;;16.23;11.23;;;;;;;;;;5012545;28;20215;-68
2023/01/23 01:15:05;;;;;;;16.77;11.30;;;;;;;;;;5012799;28;20266;-67
2023/01/23 01:17:30;;;;;;;15.00;10.47;;;;;;;;;;4995647;28;20208;-68
2023/01/23 01:19:55;;;;;;;17.07;11.63;;;;;;;;;;4994976;28;20225;-68
2023/01/23 01:22:20;;;;;;;16.87;11.03;;;;;;;;;;4995011;28;20220;-67
2023/01/23 01:24:46;;;;;;;17.60;12.03;;;;;;;;;;5013221;28;20212;-68
2023/01/23 01:27:11;;;;;;;14.80;11.47;;;;;;;;;;5011479;28;20306;-67
2023/01/23 01:29:36;;;;;;;16.40;11.03;;;;;;;;;;5013174;28;20213;-67
2023/01/23 01:32:02;;;;;;;13.93;10.30;;;;;;;;;;5012266;28;20769;-67
2023/01/23 01:34:27;;;;;;;19.53;12.50;;;;;;;;;;4994682;28;20208;-68
2023/01/23 01:36:52;;;;;;;17.37;11.37;;;;;;;;;;4995320;28;20763;-68
2023/01/23 01:39:18;;;;;;;16.03;10.67;;;;;;;;;;5012496;28;20226;-67
2023/01/23 01:41:43;;;;;;;15.77;11.50;;;;;;;;;;5001658;28;20228;-67
2023/01/23 01:44:18;;;;;;;16.00;11.50;;;;;;;;;;4992718;28;20300;-68
2023/01/23 01:46:44;;;;;;;16.33;11.47;;;;;;;;;;4993024;28;20227;-67
2023/01/23 01:49:11;;;;;;;17.47;11.80;;;;;;;;;;4991994;28;20221;-67
2023/01/23 01:51:38;;;;;;;16.17;11.83;;;;;;;;;;4990566;28;20224;-67
2023/01/23 01:54:03;;;;;;;16.80;12.17;;;;;;;;;;5011983;28;20685;-67
2023/01/23 01:56:29;;;;;;;20.80;13.33;;;;;;;;;;5011685;28;20296;-67
2023/01/23 01:58:54;;;;;;;17.27;12.20;;;;;;;;;;4994887;28;20217;-67
2023/01/23 02:01:19;;;;;;;17.47;12.00;;;;;;;;;;4993645;28;20217;-67
2023/01/23 02:03:45;;;;;;;17.83;12.30;;;;;;;;;;4993156;28;20217;-67
2023/01/23 02:06:10;;;;;;;20.23;12.70;;;;;;;;;;4997219;28;20967;-67
2023/01/23 02:08:39;;;;;;;15.77;11.73;;;;;;;;;;4994051;28;20216;-67
2023/01/23 02:11:05;;;;;;;16.97;12.33;;;;;;;;;;5011711;28;20307;-67
2023/01/23 02:13:34;;;;;;;18.47;12.13;;;;;;;;;;4994666;28;20975;-68
2023/01/23 02:16:01;;;;;;;16.80;12.17;;;;;;;;;;4994563;28;20258;-67
2023/01/23 02:18:27;;;;;;;17.83;11.97;;;;;;;;;;5011736;28;20215;-67
2023/01/23 02:20:52;;;;;;;16.00;11.33;;;;;;;;;;4993615;28;20209;-68
2023/01/23 02:23:32;;;;;;;16.13;11.73;;;;;;;;;;5010793;28;20853;-67
2023/01/23 02:25:58;;;;;;;17.57;12.00;;;;;;;;;;4994637;28;20279;-68
2023/01/23 02:28:24;;;;;;;16.50;11.40;;;;;;;;;;5011158;28;20216;-67
2023/01/23 02:30:50;;;;;;;15.43;11.43;;;;;;;;;;4993458;28;20223;-63
2023/01/23 02:33:18;;;;;;;17.50;11.83;;;;;;;;;;4992266;28;21002;-67
2023/01/23 02:35:43;;;;;;;14.87;11.10;;;;;;;;;;4982790;28;20688;-67
2023/01/23 02:38:09;;;;;;;15.90;10.83;;;;;;;;;;4981114;28;20224;-67
2023/01/23 02:40:35;;;;;;;17.03;11.53;;;;;;;;;;4978768;28;20221;-67
2023/01/23 02:43:02;;;;;;;14.87;10.97;;;;;;;;;;4974490;28;20315;-67
2023/01/23 02:45:27;;;;;;;15.00;11.10;;;;;;;;;;4956980;28;20213;-67
2023/01/23 02:47:52;;;;;;;16.57;11.70;;;;;;;;;;4979497;28;20217;-67
2023/01/23 02:50:18;;;;;;;15.87;12.10;;;;;;;;;;4964323;28;20286;-67
2023/01/23 02:52:44;;;;;;;18.77;12.40;;;;;;;;;;4964326;28;20209;-67
2023/01/23 02:55:09;;;;;;;16.10;11.43;;;;;;;;;;4981642;28;20217;-67
2023/01/23 02:57:35;;;;;;;14.33;11.57;;;;;;;;;;4981940;28;20228;-67
2023/01/23 03:00:15;;;;;;;16.40;11.93;;;;;;;;;;4982121;28;20216;-67
2023/01/23 03:02:41;;;;;;;15.70;11.60;;;;;;;;;;4979887;28;20217;-67
2023/01/23 03:05:06;;;;;;;16.67;11.17;;;;;;;;;;4956720;28;20221;-67
2023/01/23 03:07:31;;;;;;;14.33;10.97;;;;;;;;;;4971583;28;20227;-68
2023/01/23 03:09:57;;;;;;;17.00;11.07;;;;;;;;;;4996912;28;20695;-68
2023/01/23 03:12:22;;;;;;;13.47;10.50;;;;;;;;;;5004566;28;20212;-67
2023/01/23 03:14:52;;;;;;;14.77;10.60;;;;;;;;;;5001258;28;20212;-68
2023/01/23 03:17:18;;;;;;;14.80;11.77;;;;;;;;;;5006210;28;20213;-67
2023/01/23 03:19:43;;;;;;;14.13;11.07;;;;;;;;;;4983147;28;20271;-67
2023/01/23 03:22:08;;;;;;;14.70;10.67;;;;;;;;;;4983306;28;20954;-67
2023/01/23 03:24:34;;;;;;;16.53;10.87;;;;;;;;;;5001010;28;20339;-67
2023/01/23 03:26:59;;;;;;;12.40;10.33;;;;;;;;;;4976075;28;20208;-67
2023/01/23 03:32:11;;;;;;;15.03;10.63;;;;;;;;;;4979390;28;20287;-67
2023/01/23 03:34:37;;;;;;;13.87;10.57;;;;;;;;;;4983005;28;20612;-67
2023/01/23 03:37:02;;;;;;;12.97;10.70;;;;;;;;;;5000873;28;20213;-67
2023/01/23 03:42:11;;;;;;;14.67;10.43;;;;;;;;;;5001653;28;20223;-67
2023/01/23 03:44:36;;;;;;;12.83;9.73;;;;;;;;;;5000828;28;20216;-67
2023/01/23 03:47:02;;;;;;;13.93;9.73;;;;;;;;;;4999688;28;20220;-67
2023/01/23 03:49:27;;;;;;;15.30;10.47;;;;;;;;;;4992521;28;20216;-67
2023/01/23 03:51:52;;;;;;;14.93;10.77;;;;;;;;;;4992476;28;20965;-67
2023/01/23 03:54:18;;;;;;;14.13;10.93;;;;;;;;;;5011573;28;20227;-67
2023/01/23 03:56:43;;;;;;;16.47;11.40;;;;;;;;;;5020195;28;20222;-67
2023/01/23 03:59:08;;;;;;;17.27;11.33;;;;;;;;;;5019679;28;20211;-67
2023/01/23 04:01:34;;;;;;;17.07;10.63;;;;;;;;;;5000478;28;20220;-67
2023/01/23 04:03:59;;;;;;;15.27;10.87;;;;;;;;;;5000822;28;20239;-68
2023/01/23 04:06:24;;;;;;;15.23;11.33;;;;;;;;;;5000210;28;20719;-67
2023/01/23 04:08:50;;;;;;;14.73;10.87;;;;;;;;;;4982324;28;20956;-67
2023/01/23 04:11:15;;;;;;;16.67;11.57;;;;;;;;;;4995657;28;20225;-67
2023/01/23 04:13:40;;;;;;;14.37;10.87;;;;;;;;;;4993091;28;20216;-68
2023/01/23 04:16:06;;;;;;;13.10;10.47;;;;;;;;;;4993872;28;20223;-67
2023/01/23 04:18:31;;;;;;;16.87;10.53;;;;;;;;;;5017225;28;20234;-67
2023/01/23 04:20:56;;;;;;;14.97;10.80;;;;;;;;;;5002757;28;20242;-67
2023/01/23 04:23:22;;;;;;;14.70;10.87;;;;;;;;;;5019012;28;20224;-67
2023/01/23 04:25:47;;;;;;;13.03;10.20;;;;;;;;;;5019944;28;20262;-67
2023/01/23 04:28:12;;;;;;;14.47;10.23;;;;;;;;;;5019480;28;20225;-67
2023/01/23 04:30:38;;;;;;;15.90;10.70;;;;;;;;;;5018703;28;20235;-67
2023/01/23 04:33:03;;;;;;;16.97;10.93;;;;;;;;;;5016909;28;20218;-67
2023/01/23 04:35:28;;;;;;;16.00;10.83;;;;;;;;;;5012895;28;20219;-68
2023/01/23 04:37:53;;;;;;;14.20;11.40;;;;;;;;;;5012082;28;20219;-67
2023/01/23 04:40:19;;;;;;;16.03;11.13;;;;;;;;;;5010862;28;20232;-67
2023/01/23 04:42:45;;;;;;;15.23;11.03;;;;;;;;;;4983474;28;20631;-67
2023/01/23 04:45:10;;;;;;;15.67;11.57;;;;;;;;;;5003008;28;20247;-67
2023/01/23 04:47:36;;;;;;;14.67;10.73;;;;;;;;;;5004057;28;20244;-68
2023/01/23 04:50:01;;;;;;;15.93;11.53;;;;;;;;;;4986076;28;20298;-67
2023/01/23 04:52:26;;;;;;;14.80;10.57;;;;;;;;;;4986126;28;20219;-67
2023/01/23 04:54:52;;;;;;;13.77;10.20;;;;;;;;;;5009944;28;20205;-67
2023/01/23 04:57:17;;;;;;;14.83;9.80;;;;;;;;;;5011449;28;20216;-68
2023/01/23 04:59:43;;;;;;;15.07;11.53;;;;;;;;;;5004086;28;20804;-67
2023/01/23 05:02:08;;;;;;;15.80;10.83;;;;;;;;;;4994840;28;20644;-67
2023/01/23 05:04:33;;;;;;;12.53;10.83;;;;;;;;;;4976869;28;20213;-67
2023/01/23 05:06:59;;;;;;;12.77;10.37;;;;;;;;;;4983992;28;20229;-67
2023/01/23 05:09:24;;;;;;;14.77;10.73;;;;;;;;;;4976869;28;20220;-67
2023/01/23 05:11:49;;;;;;;14.07;9.87;;;;;;;;;;4983129;28;20229;-67
2023/01/23 05:14:14;;;;;;;14.70;11.10;;;;;;;;;;4983695;28;20217;-67
2023/01/23 05:16:40;;;;;;;13.23;11.00;;;;;;;;;;4983876;28;20300;-67
2023/01/23 05:19:05;;;;;;;13.20;10.00;;;;;;;;;;5002175;28;20675;-67
2023/01/23 05:21:30;;;;;;;14.57;10.10;;;;;;;;;;5003176;28;20601;-67
2023/01/23 05:23:56;;;;;;;13.80;9.63;;;;;;;;;;5003452;28;20220;-67
2023/01/23 05:26:21;;;;;;;12.27;9.57;;;;;;;;;;4979276;28;20204;-68
2023/01/23 05:28:46;;;;;;;13.13;9.70;;;;;;;;;;4995779;28;20212;-67
2023/01/23 05:31:12;;;;;;;13.10;9.77;;;;;;;;;;4994961;28;21001;-68
2023/01/23 05:33:39;;;;;;;13.83;9.90;;;;;;;;;;4999658;28;20239;-68
2023/01/23 05:36:04;;;;;;;13.17;9.80;;;;;;;;;;4992112;28;20653;-67
2023/01/23 05:38:30;;;;;;;12.23;9.47;;;;;;;;;;4983940;28;20252;-67
2023/01/23 05:40:55;;;;;;;12.03;9.43;;;;;;;;;;4982961;28;20640;-67
2023/01/23 05:43:20;;;;;;;13.50;10.33;;;;;;;;;;4984333;28;20221;-67
2023/01/23 05:45:45;;;;;;;13.07;10.20;;;;;;;;;;4985583;28;20224;-68
2023/01/23 05:48:11;;;;;;;13.07;9.97;;;;;;;;;;4981652;28;20234;-67
2023/01/23 05:50:36;;;;;;;13.70;10.23;;;;;;;;;;4996255;28;20227;-67
2023/01/23 05:53:01;;;;;;;11.77;9.67;;;;;;;;;;4977120;28;20240;-67
2023/01/23 05:55:27;;;;;;;13.77;10.57;;;;;;;;;;4998811;28;20212;-67
2023/01/23 05:57:52;;;;;;;13.13;10.30;;;;;;;;;;5021964;28;20223;-67
2023/01/23 06:00:17;;;;;;;16.00;11.23;;;;;;;;;;5022098;28;20204;-67
2023/01/23 06:02:43;;;;;;;11.37;9.27;;;;;;;;;;4995459;28;20216;-67
2023/01/23 06:05:08;;;;;;;14.30;10.23;;;;;;;;;;4983086;28;20300;-67
2023/01/23 06:07:34;;;;;;;14.70;11.13;;;;;;;;;;5000958;28;20243;-67
2023/01/23 06:09:59;;;;;;;14.53;10.87;;;;;;;;;;5020983;28;20227;-67
2023/01/23 06:12:24;;;;;;;15.13;11.03;;;;;;;;;;5014368;28;20215;-67
2023/01/23 06:14:50;;;;;;;12.70;10.33;;;;;;;;;;5014062;28;20285;-68
2023/01/23 06:17:15;;;;;;;13.27;10.63;;;;;;;;;;5013302;28;20222;-67
2023/01/23 06:19:41;;;;;;;16.40;10.50;;;;;;;;;;5020313;28;20262;-67
2023/01/23 06:22:06;;;;;;;16.00;11.03;;;;;;;;;;5003450;28;20216;-68
2023/01/23 06:24:31;;;;;;;14.63;11.57;;;;;;;;;;5020223;28;20290;-68
2023/01/23 06:26:57;;;;;;;16.37;11.27;;;;;;;;;;5021850;28;20558;-67
2023/01/23 06:29:22;;;;;;;14.97;11.90;;;;;;;;;;5020506;28;20726;-67
2023/01/23 06:31:48;;;;;;;14.87;11.23;;;;;;;;;;5021845;28;20746;-64
2023/01/23 06:34:13;;;;;;;14.53;10.77;;;;;;;;;;5020719;28;20310;-65
2023/01/23 06:36:39;;;;;;;15.43;13.20;;;;;;;;;;5019053;28;20423;-66
2023/01/23 06:39:04;;;;;;;16.43;11.37;;;;;;;;;;5011461;28;20221;-64
2023/01/23 06:41:30;;;;;;;13.73;11.43;;;;;;;;;;5015852;28;20212;-64
2023/01/23 06:43:55;;;;;;;15.30;13.70;;;;;;;;;;5025063;28;20420;-64
2023/01/23 06:46:20;;;;;;;14.20;12.40;;;;;;;;;;5025001;28;20231;-64
2023/01/23 06:48:46;;;;;;;15.20;11.93;;;;;;;;;;5019836;28;20227;-64
2023/01/23 06:51:11;;;;;;;16.40;11.20;;;;;;;;;;5022170;28;20219;-64
2023/01/23 06:53:37;;;;;;;15.03;11.07;;;;;;;;;;5026744;28;20214;-64
2023/01/23 06:56:04;;;;;;;12.63;10.10;;;;;;;;;;5025402;28;20200;-65
2023/01/23 06:58:29;;;;;;;15.57;12.30;;;;;;;;;;5021151;28;20290;-65
2023/01/23 07:00:54;;;;;;;13.23;11.80;;;;;;;;;;5021455;28;20300;-65
2023/01/23 07:03:20;;;;;;;14.00;11.10;;;;;;;;;;5017185;28;20583;-66
2023/01/23 07:05:45;;;;;;;16.27;11.73;;;;;;;;;;5022378;28;20216;-66
2023/01/23 07:08:10;;;;;;;16.73;11.93;;;;;;;;;;5001239;28;20229;-65
2023/01/23 07:10:36;;;;;;;13.83;11.23;;;;;;;;;;4982873;28;20643;-65
2023/01/23 07:13:03;;;;;;;15.07;11.10;;;;;;;;;;4978673;28;20638;-65
2023/01/23 07:15:28;;;;;;;14.33;10.37;;;;;;;;;;4966463;28;20216;-64
2023/01/23 07:17:53;;;;;;;17.00;11.53;;;;;;;;;;4968621;28;20288;-64
2023/01/23 07:20:19;;;;;;;15.23;10.87;;;;;;;;;;4988840;28;20225;-65
2023/01/23 07:22:44;;;;;;;12.80;11.03;;;;;;;;;;4979839;28;20217;-67
2023/01/23 07:25:10;;;;;;;14.17;12.53;;;;;;;;;;4980336;28;20503;-66
2023/01/23 07:27:35;;;;;;;16.60;12.10;;;;;;;;;;4980367;28;20241;-67
2023/01/23 07:30:00;;;;;;;14.40;10.57;;;;;;;;;;4978830;28;20218;-66
2023/01/23 07:32:25;;;;;;;15.77;11.10;;;;;;;;;;4962357;28;20213;-66
2023/01/23 07:34:52;;;;;;;13.00;10.33;;;;;;;;;;4983934;28;20209;-65
2023/01/23 07:37:17;;;;;;;16.27;11.50;;;;;;;;;;4970146;28;20261;-65
2023/01/23 07:39:42;;;;;;;14.47;10.97;;;;;;;;;;4973241;28;20209;-65
2023/01/23 07:42:09;;;;;;;14.63;11.40;;;;;;;;;;4994147;28;20235;-65
2023/01/23 07:44:34;;;;;;;14.07;11.23;;;;;;;;;;5010727;28;20270;-65
2023/01/23 07:46:59;;;;;;;15.43;10.90;;;;;;;;;;5007649;28;20617;-65
2023/01/23 07:49:24;;;;;;;14.43;11.70;;;;;;;;;;5010172;28;20212;-65
2023/01/23 07:51:50;;;;;;;14.47;10.87;;;;;;;;;;5010176;28;20228;-65
2023/01/23 07:54:15;;;;;;;13.83;11.13;;;;;;;;;;5009143;28;20695;-65
2023/01/23 07:56:40;;;;;;;13.97;11.67;;;;;;;;;;5010469;28;20220;-65
2023/01/23 07:59:06;;;;;;;14.70;11.00;;;;;;;;;;5009774;28;20224;-65
2023/01/23 08:01:31;;;;;;;12.63;11.07;;;;;;;;;;5009712;28;20283;-65
2023/01/23 08:03:56;;;;;;;12.50;10.43;;;;;;;;;;5010337;28;20220;-65
2023/01/23 08:06:22;;;;;;;14.13;11.27;;;;;;;;;;5002224;28;20229;-65
2023/01/23 08:08:47;;;;;;;14.73;11.40;;;;;;;;;;4990283;28;20766;-64
2023/01/23 08:11:13;;;;;;;13.10;10.90;;;;;;;;;;4972902;28;20249;-65
2023/01/23 08:13:38;;;;;;;15.00;11.63;;;;;;;;;;4990514;28;20220;-65
2023/01/23 08:16:03;;;;;;;12.83;11.43;;;;;;;;;;4989660;28;20213;-64
2023/01/23 08:18:29;;;;;;;13.27;11.00;;;;;;;;;;4992619;28;20227;-65
2023/01/23 08:20:54;;;;;;;15.03;10.33;;;;;;;;;;4994304;28;20703;-65
2023/01/23 08:23:22;;;;;;;14.07;10.83;;;;;;;;;;4993647;28;20224;-65
2023/01/23 08:25:51;;;;;;;14.57;10.57;;;;;;;;;;4998523;28;20686;-65
2023/01/23 08:28:16;;;;;;;15.43;11.63;;;;;;;;;;5001675;28;20213;-65
2023/01/23 08:30:41;;;;;;;15.27;11.83;;;;;;;;;;5013996;28;20588;-65
2023/01/23 08:33:07;;;;;;;15.37;11.87;;;;;;;;;;5013616;28;20212;-65
2023/01/23 08:35:32;;;;;;;15.80;11.63;;;;;;;;;;5006342;28;20243;-65
2023/01/23 08:37:57;;;;;;;14.67;12.33;;;;;;;;;;4997022;28;20209;-65
2023/01/23 08:40:22;;;;;;;14.63;11.77;;;;;;;;;;5000393;28;20292;-65
2023/01/23 08:42:48;;;;;;;17.30;12.07;;;;;;;;;;4996093;28;20669;-65
2023/01/23 08:45:13;;;;;;;16.97;11.70;;;;;;;;;;5004202;28;20223;-65
2023/01/23 08:47:38;;;;;;;14.77;12.33;;;;;;;;;;5002650;28;20216;-65
2023/01/23 08:50:04;;;;;;;16.00;12.47;;;;;;;;;;4995808;28;20201;-65
2023/01/23 08:52:30;;;;;;;15.40;12.00;;;;;;;;;;4995875;28;20216;-65
2023/01/23 08:54:55;;;;;;;16.07;12.10;;;;;;;;;;5013805;28;20514;-65
2023/01/23 08:57:20;;;;;;;15.13;12.13;;;;;;;;;;5012482;28;20208;-65
2023/01/23 08:59:46;;;;;;;13.73;11.27;;;;;;;;;;5012886;28;20227;-65
2023/01/23 09:02:11;;;;;;;14.03;11.47;;;;;;;;;;5013080;28;20796;-65
2023/01/23 09:04:37;;;;;;;15.27;11.70;;;;;;;;;;5012854;28;20586;-65
2023/01/23 09:07:02;;;;;;;14.60;11.97;;;;;;;;;;4999991;28;20229;-65
2023/01/23 09:09:28;;;;;;;16.87;13.00;;;;;;;;;;4993886;28;20217;-65
2023/01/23 09:11:53;;;;;;;15.27;12.33;;;;;;;;;;4992955;28;20225;-65
2023/01/23 09:14:18;;;;;;;13.97;11.87;;;;;;;;;;4999407;28;20220;-65
2023/01/23 09:16:44;;;;;;;17.00;12.00;;;;;;;;;;5012744;28;20267;-64
2023/01/23 09:19:11;;;;;;;18.97;12.03;;;;;;;;;;5009323;28;20299;-64
2023/01/23 09:21:36;;;;;;;14.30;11.93;;;;;;;;;;5012887;28;20228;-64
2023/01/23 09:24:02;;;;;;;15.77;12.13;;;;;;;;;;4995095;28;20244;-65
2023/01/23 09:26:27;;;;;;;16.37;12.87;;;;;;;;;;5012311;28;20247;-64
2023/01/23 09:28:53;;;;;;;15.57;13.03;;;;;;;;;;5012230;28;20972;-64
2023/01/23 09:31:18;;;;;;;16.42;13.88;;;;;;;;;;4994186;28;20443;-66
2023/01/23 09:33:44;;;;;;;18.10;13.00;;;;;;;;;;5012417;28;20216;-64
2023/01/23 09:36:09;;;;;;;16.90;13.20;;;;;;;;;;5012126;28;20228;-64
2023/01/23 09:38:35;;;;;;;14.50;11.53;;;;;;;;;;5012092;28;20204;-64
2023/01/23 09:41:05;;;;;;;15.30;12.13;;;;;;;;;;5012729;28;20196;-66
2023/01/23 09:43:31;;;;;;;15.87;12.33;;;;;;;;;;4995037;28;20209;-66
2023/01/23 09:45:59;;;;;;;15.93;11.93;;;;;;;;;;5009744;28;20220;-66
2023/01/23 09:48:27;;;;;;;15.57;12.60;;;;;;;;;;5012217;28;20267;-66
2023/01/23 09:50:53;;;;;;;16.30;12.47;;;;;;;;;;4994820;28;20240;-66
2023/01/23 09:53:20;;;;;;;14.80;13.17;;;;;;;;;;5011121;28;20217;-65
2023/01/23 09:55:48;;;;;;;14.67;11.87;;;;;;;;;;5013893;28;20702;-64
2023/01/23 09:58:16;;;;;;;15.27;11.93;;;;;;;;;;4995337;28;20231;-65
2023/01/23 10:00:41;;;;;;;16.23;13.80;;;;;;;;;;4994039;28;20293;-65
2023/01/23 10:03:10;;;;;;;15.27;11.90;;;;;;;;;;5011934;28;20676;-65
2023/01/23 10:05:40;;;;;;;13.23;11.50;;;;;;;;;;4993695;28;20579;-65
2023/01/23 10:08:11;;;;;;;15.80;13.07;;;;;;;;;;5008980;28;20229;-65
2023/01/23 10:10:37;;;;;;;16.70;12.33;;;;;;;;;;5012495;28;20231;-65
2023/01/23 10:13:13;;;;;;;13.37;11.93;;;;;;;;;;5011862;28;20220;-65
2023/01/23 10:15:57;;;;;;;17.17;12.70;;;;;;;;;;5010227;28;20208;-65
2023/01/23 10:18:32;;;;;;;14.93;12.10;;;;;;;;;;5011751;28;20239;-65
2023/01/23 10:21:00;;;;;;;19.50;12.83;;;;;;;;;;5010127;28;20694;-65
2023/01/23 10:23:29;;;;;;;16.40;12.97;;;;;;;;;;5012346;28;20216;-65
2023/01/23 10:25:54;;;;;;;15.47;12.40;;;;;;;;;;5030567;28;20211;-65
2023/01/23 10:28:24;;;;;;;15.27;13.07;;;;;;;;;;5029398;28;20558;-65
2023/01/23 10:30:50;;;;;;;15.20;13.23;;;;;;;;;;5030352;28;20810;-65
2023/01/23 10:33:16;;;;;;;16.83;14.23;;;;;;;;;;5031330;28;20345;-63
2023/01/23 10:35:42;;;;;;;17.60;14.07;;;;;;;;;;5029525;28;20302;-65
2023/01/23 10:38:11;;;;;;;19.10;15.07;;;;;;;;;;5031213;28;20698;-65
2023/01/23 10:43:20;;;;;;;16.73;14.20;;;;;;;;;;5010722;28;20686;-66
2023/01/23 10:45:46;;;;;;;18.30;14.97;;;;;;;;;;5015350;28;20295;-65
2023/01/23 10:48:30;;;;;;;17.10;13.33;;;;;;;;;;5029803;28;20214;-65
2023/01/23 10:50:55;;;;;;;21.13;17.07;;;;;;;;;;5012824;28;20221;-65
2023/01/23 10:53:21;;;;;;;15.40;13.23;;;;;;;;;;4991605;28;20288;-65
2023/01/23 10:55:46;;;;;;;21.77;17.63;;;;;;;;;;4991741;28;20209;-65
2023/01/23 10:58:21;;;;;;;16.77;14.03;;;;;;;;;;4989465;28;20213;-65
2023/01/23 11:00:47;;;;;;;14.93;12.93;;;;;;;;;;4990799;28;20307;-65
2023/01/23 11:03:19;;;;;;;15.97;13.63;;;;;;;;;;4990491;28;20344;-65
2023/01/23 11:05:45;;;;;;;15.97;13.40;;;;;;;;;;4993157;28;20700;-65
2023/01/23 11:08:24;;;;;;;15.00;12.80;;;;;;;;;;4993079;28;20224;-65
2023/01/23 11:10:49;;;;;;;14.53;12.70;;;;;;;;;;5010291;28;20225;-65
2023/01/23 11:13:23;;;;;;;14.20;12.67;;;;;;;;;;5010727;28;20266;-65
2023/01/23 11:15:48;;;;;;;15.70;13.80;;;;;;;;;;4993529;28;20213;-65
2023/01/23 11:18:27;;;;;;;16.27;13.03;;;;;;;;;;4992293;28;20380;-65
2023/01/23 11:20:54;;;;;;;15.10;13.47;;;;;;;;;;4993280;28;20208;-65
2023/01/23 11:23:19;;;;;;;17.43;14.17;;;;;;;;;;5010428;28;20215;-65
2023/01/23 11:25:45;;;;;;;16.17;12.67;;;;;;;;;;5010102;28;20212;-65
2023/01/23 11:28:25;;;;;;;14.57;12.90;;;;;;;;;;5009101;28;20220;-65
2023/01/23 11:30:50;;;;;;;16.23;13.53;;;;;;;;;;5010930;28;20367;-64
2023/01/23 11:33:20;;;;;;;16.00;12.80;;;;;;;;;;5009626;28;20296;-66
2023/01/23 11:35:52;;;;;;;16.60;13.40;;;;;;;;;;4993464;28;20227;-65
2023/01/23 11:38:19;;;;;;;15.20;13.40;;;;;;;;;;4992038;28;20208;-70
2023/01/23 11:40:44;;;;;;;14.30;12.50;;;;;;;;;;4990954;28;20291;-66
2023/01/23 11:43:12;;;;;;;14.00;12.50;;;;;;;;;;4973181;28;20291;-65
2023/01/23 11:45:39;;;;;;;14.53;12.57;;;;;;;;;;4974923;28;20204;-65
2023/01/23 11:48:05;;;;;;;13.47;12.03;;;;;;;;;;4973045;28;20316;-65
2023/01/23 11:50:34;;;;;;;15.10;13.13;;;;;;;;;;4997092;28;20311;-65
2023/01/23 11:53:05;;;;;;;15.27;13.50;;;;;;;;;;4992295;28;20222;-65
2023/01/23 11:55:33;;;;;;;14.93;13.37;;;;;;;;;;5029893;28;20208;-65
2023/01/23 11:58:04;;;;;;;14.23;12.43;;;;;;;;;;5030253;28;20212;-65
2023/01/23 12:00:32;;;;;;;14.80;12.13;;;;;;;;;;4991955;28;20435;-65
2023/01/23 12:02:58;;;;;;;14.93;12.33;;;;;;;;;;4992898;28;20226;-65
2023/01/23 12:05:26;;;;;;;12.83;11.43;;;;;;;;;;5009601;28;20216;-65
2023/01/23 12:08:09;;;;;;;17.67;15.60;;;;;;;;;;4987932;28;20720;-65
2023/01/23 12:10:41;;;;;;;22.07;18.43;;;;;;;;;;4992363;28;20224;-67
2023/01/23 12:13:07;;;;;;;21.03;17.50;;;;;;;;;;4990581;28;20286;-65
2023/01/23 12:15:42;;;;;;;16.50;14.10;;;;;;;;;;5023947;28;20225;-65
2023/01/23 12:18:20;;;;;;;17.63;15.13;;;;;;;;;;5028988;28;20269;-65
2023/01/23 12:20:50;;;;;;;19.00;17.00;;;;;;;;;;5009416;28;20590;-64
2023/01/23 12:23:22;;;;;;;16.30;14.60;;;;;;;;;;5009462;28;20687;-69
2023/01/23 12:25:47;;;;;;;15.17;13.57;;;;;;;;;;4992534;28;20699;-70
2023/01/23 12:28:28;;;;;;;19.10;17.20;;;;;;;;;;4991558;28;20586;-69
2023/01/23 12:30:56;;;;;;;15.00;13.47;;;;;;;;;;5010177;28;20585;-69
2023/01/23 12:33:41;;;;;;;15.47;13.87;;;;;;;;;;4975942;28;20228;-69
2023/01/23 12:36:25;;;;;;;15.17;13.60;;;;;;;;;;4991285;28;20204;-69
2023/01/23 12:38:57;;;;;;;16.97;13.80;;;;;;;;;;5009943;28;20706;-69
2023/01/23 12:41:22;;;;;;;14.40;12.90;;;;;;;;;;4998484;28;20208;-69
2023/01/23 12:43:58;;;;;;;15.17;13.13;;;;;;;;;;5011984;28;20212;-69
2023/01/23 12:46:35;;;;;;;18.73;16.53;;;;;;;;;;5020375;28;20312;-69
2023/01/23 12:49:08;;;;;;;16.43;14.73;;;;;;;;;;4975063;28;20205;-68
2023/01/23 12:51:37;;;;;;;49.93;43.77;;;;;;;;;;4987885;28;20765;-69
2023/01/23 12:54:03;;;;;;;17.07;15.37;;;;;;;;;;4992124;28;20221;-68
2023/01/23 12:56:29;;;;;;;16.27;14.37;;;;;;;;;;4991640;28;20212;-69
2023/01/23 12:58:58;;;;;;;15.73;14.07;;;;;;;;;;4992429;28;20347;-69
2023/01/23 13:01:35;;;;;;;14.73;13.07;;;;;;;;;;4991944;28;20212;-69
2023/01/23 13:04:03;;;;;;;15.37;13.03;;;;;;;;;;5009768;28;20236;-69
2023/01/23 13:06:34;;;;;;;15.13;13.23;;;;;;;;;;5024873;28;20213;-69
2023/01/23 13:09:02;;;;;;;12.77;11.03;;;;;;;;;;4995840;28;20204;-69
2023/01/23 13:11:40;;;;;;;12.17;10.97;;;;;;;;;;4994825;28;20229;-69
2023/01/23 13:14:15;;;;;;;12.33;11.03;;;;;;;;;;4994906;28;20276;-68
2023/01/23 13:16:44;;;;;;;13.47;12.07;;;;;;;;;;4995250;28;20263;-69
2023/01/23 13:22:13;;;;;;;13.57;12.17;;;;;;;;;;4978872;28;20297;-69
2023/01/23 13:27:33;;;;;;;13.30;11.47;;;;;;;;;;4993101;28;20275;-69
2023/01/23 13:30:01;;;;;;;12.93;11.50;;;;;;;;;;4992352;28;20213;-69
2023/01/23 13:32:27;;;;;;;12.97;10.83;;;;;;;;;;5011787;28;20220;-69
2023/01/23 13:34:52;;;;;;;13.33;10.73;;;;;;;;;;5012595;28;20217;-69
2023/01/23 13:37:37;;;;;;;12.10;10.07;;;;;;;;;;5012326;28;20220;-69
2023/01/23 13:40:13;;;;;;;10.97;9.50;;;;;;;;;;5012089;28;20582;-68
2023/01/23 13:42:38;;;;;;;11.47;9.87;;;;;;;;;;5025115;28;20297;-69
2023/01/23 13:45:17;;;;;;;11.57;9.53;;;;;;;;;;4994008;28;20611;-68
2023/01/23 13:50:34;;;;;;;11.67;9.90;;;;;;;;;;5003532;28;20323;-69
2023/01/23 13:58:29;;;;;;;11.10;9.40;;;;;;;;;;5031875;28;20222;-69
2023/01/23 14:06:32;;;;;;;11.57;8.70;;;;;;;;;;5030865;28;20281;-69
2023/01/23 14:08:58;;;;;;;9.80;8.70;;;;;;;;;;5014408;28;20216;-69
2023/01/23 14:11:23;;;;;;;10.57;9.23;;;;;;;;;;5031557;28;20223;-69
2023/01/23 14:13:49;;;;;;;9.70;8.37;;;;;;;;;;5030884;28;20667;-69
2023/01/23 14:16:21;;;;;;;10.90;9.50;;;;;;;;;;5013537;28;20307;-69
2023/01/23 14:18:48;;;;;;;11.90;9.03;;;;;;;;;;5015243;28;20269;-69
2023/01/23 14:21:21;;;;;;;9.33;8.33;;;;;;;;;;5030610;28;20211;-69
2023/01/23 14:23:52;;;;;;;11.63;9.60;;;;;;;;;;5014236;28;20258;-69
2023/01/23 14:26:18;;;;;;;10.80;9.43;;;;;;;;;;5031152;28;20212;-69
2023/01/23 14:28:50;;;;;;;10.37;8.90;;;;;;;;;;5013085;28;20644;-69
2023/01/23 14:31:20;;;;;;;10.60;9.33;;;;;;;;;;5031146;28;20774;-69
2023/01/23 14:33:45;;;;;;;11.03;9.83;;;;;;;;;;5031718;28;20212;-69
2023/01/23 14:36:13;;;;;;;10.53;9.43;;;;;;;;;;5030267;28;20227;-69
2023/01/23 14:38:38;;;;;;;10.67;9.53;;;;;;;;;;5031444;28;20212;-69
2023/01/23 14:41:04;;;;;;;10.93;9.40;;;;;;;;;;5007718;28;20632;-69
2023/01/23 14:43:31;;;;;;;12.47;10.80;;;;;;;;;;5011699;28;20212;-70
2023/01/23 14:45:58;;;;;;;11.50;10.03;;;;;;;;;;5013256;28;20751;-69